createdAt,value
2018-08-06T00:00:20.001Z,2.40
2018-08-06T00:02:48.319Z,2.37
2018-08-06T00:05:16.357Z,2.97
2018-08-06T00:07:44.602Z,2.63
2018-08-06T00:10:16.485Z,3.97
2018-08-06T00:12:44.941Z,2.70
2018-08-06T00:15:14.320Z,3.37
2018-08-06T00:17:42.836Z,3.57
2018-08-06T00:20:12.805Z,3.07
2018-08-06T00:22:41.536Z,2.47
2018-08-06T00:25:11.020Z,4.40
2018-08-06T00:27:39.883Z,2.53
2018-08-06T00:30:14.535Z,2.57
2018-08-06T00:32:43.647Z,2.87
2018-08-06T00:35:12.434Z,2.60
2018-08-06T00:37:40.954Z,2.93
2018-08-06T00:40:13.785Z,2.67
2018-08-06T00:42:43.269Z,2.83
2018-08-06T00:45:14.106Z,2.83
2018-08-06T00:47:42.486Z,2.30
2018-08-06T00:50:11.514Z,2.90
2018-08-06T00:52:40.708Z,2.47
2018-08-06T00:55:11.341Z,3.30
2018-08-06T00:57:40.552Z,3.23
2018-08-06T01:00:11.297Z,4.23
2018-08-06T01:02:39.514Z,3.67
2018-08-06T01:05:09.034Z,3.40
2018-08-06T01:07:37.869Z,3.30
2018-08-06T01:10:07.464Z,3.27
2018-08-06T01:12:36.495Z,3.67
2018-08-06T01:15:05.468Z,8.93
2018-08-06T01:17:34.275Z,3.73
2018-08-06T01:20:03.171Z,4.03
2018-08-06T01:22:31.392Z,3.13
2018-08-06T01:24:59.566Z,3.33
2018-08-06T01:27:32.942Z,3.30
2018-08-06T01:30:01.342Z,3.23
2018-08-06T01:32:29.530Z,3.00
2018-08-06T01:34:57.771Z,4.70
2018-08-06T01:37:26.106Z,3.70
2018-08-06T01:39:55.256Z,3.70
2018-08-06T01:42:23.449Z,3.37
2018-08-06T01:44:51.635Z,3.03
2018-08-06T01:47:20.865Z,3.37
2018-08-06T01:49:49.269Z,3.73
2018-08-06T01:52:17.796Z,4.37
2018-08-06T01:54:46.060Z,3.40
2018-08-06T01:57:14.247Z,3.33
2018-08-06T01:59:42.520Z,3.67
2018-08-06T02:02:10.949Z,3.63
2018-08-06T02:04:39.201Z,3.10
2018-08-06T02:07:07.394Z,3.87
2018-08-06T02:09:35.594Z,3.77
2018-08-06T02:12:04.097Z,2.87
2018-08-06T02:14:32.469Z,3.37
2018-08-06T02:17:00.485Z,3.43
2018-08-06T02:19:28.829Z,3.83
2018-08-06T02:21:57.692Z,3.47
2018-08-06T02:24:25.933Z,3.73
2018-08-06T02:26:54.398Z,3.33
2018-08-06T02:29:22.630Z,4.03
2018-08-06T02:31:50.818Z,5.63
2018-08-06T02:34:19.241Z,3.90
2018-08-06T02:36:47.574Z,3.83
2018-08-06T02:39:15.754Z,4.80
2018-08-06T02:41:44.006Z,5.27
2018-08-06T02:44:12.338Z,5.17
2018-08-06T02:46:40.629Z,4.47
2018-08-06T02:49:08.841Z,4.33
2018-08-06T02:51:37.605Z,3.47
2018-08-06T02:54:06.246Z,3.40
2018-08-06T02:56:35.342Z,2.73
2018-08-06T02:59:04.436Z,3.37
2018-08-06T03:01:33.737Z,4.03
2018-08-06T03:04:02.869Z,4.30
2018-08-06T03:06:31.050Z,5.37
2018-08-06T03:08:59.521Z,5.53
2018-08-06T03:11:28.068Z,3.83
2018-08-06T03:13:56.869Z,4.83
2018-08-06T03:16:25.134Z,4.03
2018-08-06T03:18:53.417Z,4.00
2018-08-06T03:21:21.657Z,4.07
2018-08-06T03:23:50.326Z,3.50
2018-08-06T03:26:19.157Z,6.13
2018-08-06T03:28:47.336Z,4.27
2018-08-06T03:31:15.734Z,4.40
2018-08-06T03:33:43.918Z,4.43
2018-08-06T03:36:12.366Z,6.00
2018-08-06T03:38:40.638Z,3.40
2018-08-06T03:41:09.042Z,4.47
2018-08-06T03:43:37.509Z,4.30
2018-08-06T03:46:05.693Z,6.70
2018-08-06T03:48:34.585Z,5.03
2018-08-06T03:51:03.305Z,4.27
2018-08-06T03:53:31.513Z,8.07
2018-08-06T03:55:59.702Z,4.50
2018-08-06T03:58:27.998Z,4.03
2018-08-06T04:00:56.269Z,4.37
2018-08-06T04:03:24.463Z,4.30
2018-08-06T04:05:52.678Z,4.17
2018-08-06T04:08:20.906Z,6.27
2018-08-06T04:10:49.594Z,4.00
2018-08-06T04:13:17.953Z,5.97
2018-08-06T04:15:46.222Z,5.83
2018-08-06T04:18:14.429Z,4.90
2018-08-06T04:20:42.665Z,4.53
2018-08-06T04:23:10.894Z,4.23
2018-08-06T04:25:39.090Z,4.87
2018-08-06T04:28:07.280Z,6.30
2018-08-06T04:30:35.460Z,5.13
2018-08-06T04:33:03.891Z,5.10
2018-08-06T04:35:32.866Z,4.50
2018-08-06T04:38:01.034Z,4.47
2018-08-06T04:40:29.013Z,8.37
2018-08-06T04:42:57.753Z,7.10
2018-08-06T04:45:26.374Z,6.83
2018-08-06T04:47:54.668Z,4.63
2018-08-06T04:50:23.185Z,5.23
2018-08-06T04:52:51.386Z,5.53
2018-08-06T04:55:19.786Z,6.93
2018-08-06T04:57:48.676Z,6.07
2018-08-06T05:00:16.949Z,6.00
2018-08-06T05:02:45.455Z,6.63
2018-08-06T05:05:13.714Z,6.93
2018-08-06T05:07:42.394Z,6.83
2018-08-06T05:10:11.677Z,5.10
2018-08-06T05:12:39.930Z,3.97
2018-08-06T05:15:08.125Z,5.43
2018-08-06T05:17:36.060Z,5.93
2018-08-06T05:20:04.694Z,5.50
2018-08-06T05:22:33.166Z,6.17
2018-08-06T05:25:01.379Z,6.90
2018-08-06T05:27:29.557Z,6.57
2018-08-06T05:29:57.542Z,4.93
2018-08-06T05:32:26.121Z,4.40
2018-08-06T05:34:54.326Z,4.80
2018-08-06T05:37:22.521Z,4.80
2018-08-06T05:39:51.173Z,6.27
2018-08-06T05:42:19.465Z,4.67
2018-08-06T05:44:47.738Z,5.23
2018-08-06T05:47:16.015Z,4.73
2018-08-06T05:49:44.205Z,5.73
2018-08-06T05:52:12.546Z,5.53
2018-08-06T05:54:40.729Z,5.87
2018-08-06T05:57:08.938Z,5.83
2018-08-06T05:59:37.133Z,4.97
2018-08-06T06:02:05.366Z,4.37
2018-08-06T06:04:34.059Z,5.90
2018-08-06T06:07:02.391Z,5.67
2018-08-06T06:09:30.686Z,8.23
2018-08-06T06:11:59.224Z,4.43
2018-08-06T06:14:27.560Z,6.67
2018-08-06T06:16:55.793Z,5.97
2018-08-06T06:19:23.800Z,6.77
2018-08-06T06:21:51.993Z,5.10
2018-08-06T06:24:20.213Z,4.67
2018-08-06T06:26:48.575Z,4.27
2018-08-06T06:29:16.789Z,5.63
2018-08-06T06:31:45.229Z,6.50
2018-08-06T06:34:13.453Z,4.90
2018-08-06T06:36:41.718Z,4.53
2018-08-06T06:39:11.161Z,4.23
2018-08-06T06:41:39.865Z,6.90
2018-08-06T06:44:08.601Z,4.90
2018-08-06T06:46:37.293Z,6.00
2018-08-06T06:49:05.532Z,4.40
2018-08-06T06:51:33.874Z,4.23
2018-08-06T06:54:02.076Z,4.57
2018-08-06T06:56:30.293Z,8.07
2018-08-06T06:58:58.645Z,7.17
2018-08-06T07:01:27.077Z,4.80
2018-08-06T07:03:55.382Z,4.00
2018-08-06T07:06:23.639Z,4.93
2018-08-06T07:08:51.818Z,4.13
2018-08-06T07:11:20.969Z,4.57
2018-08-06T07:13:49.420Z,4.80
2018-08-06T07:16:17.561Z,5.87
2018-08-06T07:18:45.790Z,4.00
2018-08-06T07:21:14.105Z,5.47
2018-08-06T07:23:42.348Z,6.27
2018-08-06T07:26:11.086Z,4.50
2018-08-06T07:28:39.322Z,4.60
2018-08-06T07:31:07.576Z,4.17
2018-08-06T07:33:35.830Z,4.97
2018-08-06T07:36:04.111Z,4.53
2018-08-06T07:38:32.366Z,5.93
2018-08-06T07:41:00.584Z,5.57
2018-08-06T07:43:28.775Z,4.57
2018-08-06T07:45:56.766Z,3.53
2018-08-06T07:48:24.997Z,5.23
2018-08-06T07:50:53.209Z,2.40
2018-08-06T07:53:21.446Z,4.07
2018-08-06T07:55:49.742Z,3.80
2018-08-06T07:58:17.965Z,3.13
2018-08-06T08:00:50.183Z,3.80
2018-08-06T08:03:18.661Z,3.00
2018-08-06T08:05:46.638Z,4.93
2018-08-06T08:08:14.916Z,5.07
2018-08-06T08:10:42.893Z,2.37
2018-08-06T08:13:11.089Z,3.23
2018-08-06T08:15:39.281Z,2.43
2018-08-06T08:18:07.560Z,2.27
2018-08-06T08:20:35.864Z,2.83
2018-08-06T08:23:04.677Z,2.87
2018-08-06T08:25:32.876Z,2.77
2018-08-06T08:28:01.131Z,6.00
2018-08-06T08:30:29.341Z,2.80
2018-08-06T08:32:57.658Z,3.83
2018-08-06T08:35:31.143Z,3.87
2018-08-06T08:37:59.413Z,3.40
2018-08-06T08:40:27.771Z,2.53
2018-08-06T08:42:56.083Z,3.40
2018-08-06T08:45:24.319Z,2.23
2018-08-06T08:47:52.501Z,2.77
2018-08-06T08:50:20.974Z,3.37
2018-08-06T08:52:49.382Z,3.03
2018-08-06T08:55:18.778Z,2.80
2018-08-06T09:00:38.268Z,2.40
2018-08-06T09:03:06.773Z,2.47
2018-08-06T09:05:35.241Z,2.80
2018-08-06T09:08:03.902Z,2.13
2018-08-06T09:10:32.144Z,2.27
2018-08-06T09:13:00.494Z,2.30
2018-08-06T09:15:28.734Z,2.17
2018-08-06T09:17:57.014Z,2.93
2018-08-06T09:20:26.998Z,2.00
2018-08-06T09:22:55.265Z,2.67
2018-08-06T09:25:23.468Z,2.53
2018-08-06T09:27:52.051Z,2.53
2018-08-06T09:30:22.044Z,2.60
2018-08-06T09:32:52.906Z,2.70
2018-08-06T09:35:21.974Z,2.77
2018-08-06T09:37:50.313Z,5.03
2018-08-06T09:40:19.841Z,3.83
2018-08-06T09:42:48.878Z,2.37
2018-08-06T09:45:18.474Z,4.23
2018-08-06T09:47:47.934Z,2.80
2018-08-06T09:50:16.933Z,2.43
2018-08-06T09:52:46.105Z,3.43
2018-08-06T09:55:15.695Z,4.67
2018-08-06T09:57:44.083Z,3.83
2018-08-06T10:00:19.289Z,1.80
2018-08-06T10:02:48.433Z,2.27
2018-08-06T10:05:16.977Z,3.50
2018-08-06T10:07:45.585Z,2.77
2018-08-06T10:10:14.080Z,6.10
2018-08-06T10:12:43.387Z,2.70
2018-08-06T10:15:12.178Z,2.30
2018-08-06T10:17:41.355Z,2.17
2018-08-06T10:20:11.662Z,2.20
2018-08-06T10:22:40.073Z,2.63
2018-08-06T10:25:11.113Z,3.60
2018-08-06T10:27:40.549Z,3.50
2018-08-06T10:30:11.183Z,2.60
2018-08-06T10:32:39.369Z,3.20
2018-08-06T10:35:09.034Z,2.63
2018-08-06T10:37:37.919Z,3.50
2018-08-06T10:40:08.654Z,2.27
2018-08-06T10:42:36.937Z,3.23
2018-08-06T10:45:07.973Z,2.10
2018-08-06T10:47:36.193Z,2.67
2018-08-06T10:50:05.052Z,5.53
2018-08-06T10:52:33.357Z,1.70
2018-08-06T10:55:01.873Z,1.93
2018-08-06T10:57:30.069Z,2.43
2018-08-06T10:59:58.272Z,1.90
2018-08-06T11:02:26.606Z,2.43
2018-08-06T11:04:55.077Z,2.00
2018-08-06T11:07:23.280Z,3.70
2018-08-06T11:09:51.477Z,2.10
2018-08-06T11:12:19.781Z,2.53
2018-08-06T11:14:48.766Z,2.10
2018-08-06T11:17:17.022Z,2.03
2018-08-06T11:19:45.233Z,2.43
2018-08-06T11:22:13.545Z,1.87
2018-08-06T11:24:42.265Z,2.70
2018-08-06T11:27:10.542Z,2.10
2018-08-06T11:29:38.764Z,1.77
2018-08-06T11:32:07.065Z,2.03
2018-08-06T11:34:35.353Z,2.10
2018-08-06T11:37:03.557Z,2.17
2018-08-06T11:39:31.782Z,2.47
2018-08-06T11:42:00.073Z,2.63
2018-08-06T11:44:28.289Z,2.07
2018-08-06T11:46:56.661Z,1.80
2018-08-06T11:49:24.962Z,2.17
2018-08-06T11:51:53.333Z,4.97
2018-08-06T11:54:21.529Z,1.83
2018-08-06T11:56:50.030Z,2.37
2018-08-06T11:59:18.405Z,1.80
2018-08-06T12:01:46.656Z,2.83
2018-08-06T12:04:14.817Z,2.43
2018-08-06T12:06:43.045Z,1.80
2018-08-06T12:09:12.245Z,2.20
2018-08-06T12:11:40.550Z,2.23
2018-08-06T12:14:08.742Z,1.90
2018-08-06T12:16:36.954Z,3.47
2018-08-06T12:19:05.285Z,2.23
2018-08-06T12:21:33.749Z,1.90
2018-08-06T12:24:01.998Z,1.67
2018-08-06T12:26:30.758Z,2.77
2018-08-06T12:29:00.863Z,6.43
2018-08-06T12:31:29.109Z,1.90
2018-08-06T12:33:57.478Z,2.50
2018-08-06T12:36:25.905Z,2.27
2018-08-06T12:39:06.003Z,2.60
2018-08-06T12:41:34.371Z,2.90
2018-08-06T12:44:02.595Z,2.20
2018-08-06T12:46:30.760Z,2.43
2018-08-06T12:48:58.971Z,3.23
2018-08-06T12:51:27.373Z,2.33
2018-08-06T12:53:55.802Z,2.23
2018-08-06T12:56:24.094Z,2.10
2018-08-06T12:58:52.381Z,2.43
2018-08-06T13:01:20.589Z,3.87
2018-08-06T13:03:49.101Z,2.97
2018-08-06T13:06:17.346Z,3.53
2018-08-06T13:08:45.660Z,3.13
2018-08-06T13:11:14.330Z,2.23
2018-08-06T13:13:42.583Z,4.13
2018-08-06T13:16:10.856Z,3.37
2018-08-06T13:18:39.347Z,2.63
2018-08-06T13:21:07.608Z,4.30
2018-08-06T13:23:35.812Z,2.77
2018-08-06T13:26:04.181Z,2.53
2018-08-06T13:28:32.526Z,2.40
2018-08-06T13:31:00.733Z,2.10
2018-08-06T13:33:28.953Z,3.17
2018-08-06T13:35:57.280Z,3.70
2018-08-06T13:38:25.720Z,3.37
2018-08-06T13:40:53.965Z,2.73
2018-08-06T13:43:21.951Z,6.97
2018-08-06T13:45:50.280Z,3.43
2018-08-06T13:48:18.913Z,2.43
2018-08-06T13:50:47.156Z,4.00
2018-08-06T13:53:15.454Z,1.80
2018-08-06T13:55:43.658Z,3.83
2018-08-06T13:58:12.161Z,3.13
2018-08-06T14:00:41.435Z,2.27
2018-08-06T14:03:09.662Z,2.47
2018-08-06T14:05:37.886Z,2.30
2018-08-06T14:08:06.136Z,2.23
2018-08-06T14:10:34.969Z,3.10
2018-08-06T14:13:03.185Z,3.87
2018-08-06T14:15:31.403Z,2.63
2018-08-06T14:17:59.620Z,2.00
2018-08-06T14:20:28.821Z,1.73
2018-08-06T14:22:57.071Z,2.00
2018-08-06T14:25:25.312Z,2.67
2018-08-06T14:27:53.497Z,3.60
2018-08-06T14:30:21.732Z,2.53
2018-08-06T14:32:50.072Z,2.33
2018-08-06T14:35:19.194Z,1.50
2018-08-06T14:37:47.396Z,1.70
2018-08-06T14:40:17.833Z,2.20
2018-08-06T14:42:46.425Z,2.20
2018-08-06T14:45:14.621Z,2.23
2018-08-06T14:47:42.993Z,2.07
2018-08-06T14:50:12.981Z,3.03
2018-08-06T14:52:41.297Z,2.17
2018-08-06T14:55:09.497Z,2.03
2018-08-06T14:57:39.971Z,2.50
2018-08-06T15:00:17.345Z,1.80
2018-08-06T15:02:45.992Z,1.97
2018-08-06T15:05:14.221Z,2.13
2018-08-06T15:07:43.060Z,2.37
2018-08-06T15:10:12.437Z,2.00
2018-08-06T15:12:40.985Z,3.27
2018-08-06T15:15:11.046Z,2.43
2018-08-06T15:17:39.252Z,2.10
2018-08-06T15:20:09.758Z,4.23
2018-08-06T15:22:37.978Z,2.10
2018-08-06T15:25:09.626Z,2.33
2018-08-06T15:27:37.857Z,1.97
2018-08-06T15:30:06.214Z,5.80
2018-08-06T15:32:34.499Z,2.63
2018-08-06T15:35:02.890Z,2.23
2018-08-06T15:37:31.116Z,2.43
2018-08-06T15:39:59.273Z,1.90
2018-08-06T15:42:27.501Z,1.80
2018-08-06T15:44:55.782Z,1.73
2018-08-06T15:47:24.050Z,2.17
2018-08-06T15:49:52.276Z,2.10
2018-08-06T15:52:21.469Z,2.37
2018-08-06T15:54:49.699Z,2.40
2018-08-06T15:57:17.985Z,3.20
2018-08-06T15:59:46.149Z,1.73
2018-08-06T16:02:14.315Z,2.40
2018-08-06T16:04:42.678Z,2.40
2018-08-06T16:07:10.996Z,2.80
2018-08-06T16:09:39.209Z,2.20
2018-08-06T16:12:07.418Z,2.17
2018-08-06T16:14:35.633Z,2.20
2018-08-06T16:17:03.849Z,2.23
2018-08-06T16:19:32.066Z,1.60
2018-08-06T16:22:00.285Z,1.80
2018-08-06T16:24:28.509Z,7.13
2018-08-06T16:26:56.601Z,2.87
2018-08-06T16:29:24.821Z,2.23
2018-08-06T16:31:53.014Z,2.63
2018-08-06T16:34:21.222Z,2.07
2018-08-06T16:36:49.590Z,2.77
2018-08-06T16:39:17.630Z,2.07
2018-08-06T16:41:45.918Z,4.13
2018-08-06T16:44:14.126Z,4.60
2018-08-06T16:46:42.400Z,2.70
2018-08-06T16:49:11.602Z,2.13
2018-08-06T16:51:39.759Z,2.10
2018-08-06T16:54:07.978Z,3.80
2018-08-06T16:56:36.163Z,2.77
2018-08-06T16:59:04.778Z,3.33
2018-08-06T17:01:33.122Z,2.03
2018-08-06T17:04:01.369Z,2.20
2018-08-06T17:06:29.598Z,3.20
2018-08-06T17:08:57.897Z,2.50
2018-08-06T17:11:26.201Z,2.57
2018-08-06T17:13:54.458Z,2.30
2018-08-06T17:16:22.593Z,2.30
2018-08-06T17:18:50.834Z,2.43
2018-08-06T17:21:19.638Z,1.97
2018-08-06T17:23:47.926Z,2.17
2018-08-06T17:26:16.131Z,2.57
2018-08-06T17:28:44.409Z,2.57
2018-08-06T17:31:13.525Z,2.30
2018-08-06T17:33:41.868Z,2.83
2018-08-06T17:36:10.087Z,5.77
2018-08-06T17:38:38.374Z,2.43
2018-08-06T17:41:06.714Z,2.40
2018-08-06T17:43:34.986Z,3.83
2018-08-06T17:46:03.805Z,2.67
2018-08-06T17:48:32.489Z,3.97
2018-08-06T17:51:00.689Z,2.90
2018-08-06T17:53:28.885Z,2.47
2018-08-06T17:55:57.517Z,3.83
2018-08-06T17:58:25.725Z,2.73
2018-08-06T18:00:53.937Z,2.67
2018-08-06T18:03:22.158Z,2.97
2018-08-06T18:05:50.434Z,2.37
2018-08-06T18:08:18.727Z,3.00
2018-08-06T18:10:46.983Z,4.77
2018-08-06T18:13:15.238Z,2.73
2018-08-06T18:15:43.492Z,3.23
2018-08-06T18:18:11.877Z,5.27
2018-08-06T18:20:40.119Z,4.63
2018-08-06T18:23:09.879Z,2.77
2018-08-06T18:25:38.337Z,2.93
2018-08-06T18:28:06.552Z,4.27
2018-08-06T18:30:34.790Z,2.80
2018-08-06T18:33:03.023Z,5.03
2018-08-06T18:35:31.274Z,2.90
2018-08-06T18:37:59.475Z,4.50
2018-08-06T18:40:28.517Z,2.80
2018-08-06T18:42:57.029Z,3.67
2018-08-06T18:45:25.279Z,3.77
2018-08-06T18:47:53.735Z,5.27
2018-08-06T18:50:22.002Z,4.67
2018-08-06T18:52:50.699Z,4.33
2018-08-06T18:55:19.235Z,8.83
2018-08-06T18:57:47.709Z,6.83
2018-08-06T19:00:20.345Z,6.67
2018-08-06T19:02:48.729Z,4.93
2018-08-06T19:05:17.034Z,5.60
2018-08-06T19:07:45.398Z,3.90
2018-08-06T19:10:13.654Z,4.77
2018-08-06T19:12:47.298Z,5.83
2018-08-06T19:15:15.540Z,5.43
2018-08-06T19:17:49.140Z,5.80
2018-08-06T19:20:17.366Z,4.63
2018-08-06T19:22:45.717Z,5.07
2018-08-06T19:25:19.314Z,5.07
2018-08-06T19:27:47.514Z,5.50
2018-08-06T19:30:15.746Z,6.33
2018-08-06T19:32:44.011Z,3.57
2018-08-06T19:35:12.355Z,6.27
2018-08-06T19:37:46.209Z,4.23
2018-08-06T19:40:14.514Z,4.43
2018-08-06T19:42:48.317Z,4.23
2018-08-06T19:45:16.563Z,5.73
2018-08-06T19:47:45.144Z,3.93
2018-08-06T19:50:18.919Z,3.97
2018-08-06T19:52:47.149Z,6.43
2018-08-06T19:55:20.971Z,5.27
2018-08-06T19:57:49.217Z,4.27
2018-08-06T20:00:17.437Z,6.87
2018-08-06T20:02:45.658Z,5.33
2018-08-06T20:05:13.938Z,3.90
2018-08-06T20:07:42.331Z,5.37
2018-08-06T20:10:12.328Z,8.00
2018-08-06T20:12:40.626Z,5.23
2018-08-06T20:15:11.422Z,7.00
2018-08-06T20:17:39.645Z,5.43
2018-08-06T20:20:08.306Z,5.73
2018-08-06T20:22:36.515Z,4.40
2018-08-06T20:25:07.181Z,5.63
2018-08-06T20:27:35.762Z,4.10
2018-08-06T20:30:06.914Z,4.70
2018-08-06T20:32:35.282Z,5.03
2018-08-06T20:35:03.795Z,8.73
2018-08-06T20:37:32.348Z,4.93
2018-08-06T20:40:00.622Z,4.77
2018-08-06T20:42:28.886Z,5.90
2018-08-06T20:44:57.317Z,5.67
2018-08-06T20:47:25.571Z,9.50
2018-08-06T20:49:53.779Z,5.10
2018-08-06T20:52:22.010Z,7.77
2018-08-06T20:54:51.224Z,5.60
2018-08-06T20:57:20.451Z,6.57
2018-08-06T20:59:48.703Z,5.33
2018-08-06T21:02:17.638Z,4.93
2018-08-06T21:04:45.851Z,5.10
2018-08-06T21:07:14.117Z,6.27
2018-08-06T21:09:43.268Z,5.53
2018-08-06T21:12:11.827Z,4.27
2018-08-06T21:14:41.127Z,6.93
2018-08-06T21:17:09.391Z,5.40
2018-08-06T21:19:37.622Z,6.13
2018-08-06T21:22:05.913Z,6.07
2018-08-06T21:24:34.785Z,5.73
2018-08-06T21:27:03.373Z,5.27
2018-08-06T21:29:32.082Z,4.87
2018-08-06T21:32:00.385Z,4.30
2018-08-06T21:34:28.701Z,6.20
2018-08-06T21:36:57.170Z,5.17
2018-08-06T21:39:26.255Z,5.83
2018-08-06T21:41:54.542Z,5.70
2018-08-06T21:44:22.779Z,5.10
2018-08-06T21:46:51.080Z,4.67
2018-08-06T21:49:19.149Z,4.83
2018-08-06T21:51:47.430Z,6.30
2018-08-06T21:54:15.725Z,5.23
2018-08-06T21:56:43.934Z,4.63
2018-08-06T21:59:12.809Z,5.37
2018-08-06T22:01:41.739Z,5.57
2018-08-06T22:04:10.173Z,4.93
2018-08-06T22:06:38.520Z,4.40
2018-08-06T22:09:09.923Z,5.43
2018-08-06T22:11:38.301Z,4.63
2018-08-06T22:14:07.369Z,6.03
2018-08-06T22:16:36.066Z,4.83
2018-08-06T22:19:04.628Z,5.23
2018-08-06T22:21:33.020Z,6.60
2018-08-06T22:24:01.363Z,6.77
2018-08-06T22:26:29.598Z,5.60
2018-08-06T22:28:58.542Z,5.00
2018-08-06T22:31:26.918Z,4.77
2018-08-06T22:33:55.180Z,6.93
2018-08-06T22:36:23.395Z,7.00
2018-08-06T22:38:51.832Z,5.83
2018-08-06T22:41:20.341Z,5.10
2018-08-06T22:43:49.942Z,4.43
2018-08-06T22:46:18.265Z,5.73
2018-08-06T22:48:46.486Z,6.53
2018-08-06T22:51:14.786Z,4.93
2018-08-06T22:53:43.092Z,6.00
2018-08-06T22:56:11.601Z,5.57
2018-08-06T22:58:39.978Z,6.40
2018-08-06T23:01:09.768Z,6.77
2018-08-06T23:03:38.065Z,5.00
2018-08-06T23:06:07.061Z,5.17
2018-08-06T23:08:35.562Z,7.77
2018-08-06T23:11:03.876Z,5.40
2018-08-06T23:13:32.131Z,4.87
2018-08-06T23:16:00.561Z,5.27
2018-08-06T23:18:28.766Z,5.10
2018-08-06T23:20:57.142Z,5.40
2018-08-06T23:23:25.361Z,4.83
2018-08-06T23:25:53.689Z,5.73
2018-08-06T23:28:21.949Z,5.17
2018-08-06T23:30:50.805Z,5.10
2018-08-06T23:33:19.183Z,8.07
2018-08-06T23:35:47.440Z,4.80
2018-08-06T23:38:15.637Z,6.47
2018-08-06T23:40:43.932Z,5.07
2018-08-06T23:43:12.513Z,7.07
2018-08-06T23:45:40.977Z,6.20
2018-08-06T23:48:09.269Z,5.37
2018-08-06T23:50:37.585Z,7.07
2018-08-06T23:53:06.027Z,7.33
2018-08-06T23:55:34.281Z,4.90
2018-08-06T23:58:02.685Z,7.07
